首页
METAR-TAF:

METAR-TAF

机场 :

莱克兰, 佛罗里达州, 美国

纬度: 27-59N, 经度: 082-01W, 海拔: 43米

当前天气观测

该预报发布于28分钟前的07:55 UTC
风速11节,风向北转西北,有时为15节阵风
温度 1°C
湿度 55%
气压 1024 hPa
能見度: 16.1公里
天空无云

METAR: KLAL 220755Z AUTO 34011G15KT 10SM CLR 01/M07 A3023 RMK AO2 PNO

时间: 03:23 (08:23 UTC)

预报

该预报发布于2小时和59分钟前的05:24 UTC
预报有效从22日的 06点(UTC)到 23日的 06点(UTC)
风速11节,风向
能見度: 10公里
天空无云
从 22日的 1200点(UTC)
风速10节,风向,有时为15节阵风
能見度: 10公里
天空无云
从 22日的 1800点(UTC)
风速12节,风向北转东北,有时为18节阵风
能見度: 10公里
散云层高于5000英尺
从 23日的 0200点(UTC)
风速10节,风向北转东北
能見度: 10公里
散云层高于3000英尺
散云层高于25000英尺

TAF: KLAL 220524Z 2206/2306 36011KT P6SM SKC FM221200 36010G15KT P6SM SKC FM221800 02012G18KT P6SM SCT050 FM230200 02010KT P6SM SCT030 SCT250 AMD NOT SKED TIL 221100

超过4000个机场的气象观测和天气预报(METAR&TAF报告)。

可查询的气象台以黄色和红色小点在地图上表示。

将鼠标移到小点上方,可查看气象台名称。

然后点击查看天气观测和预报。

如需切换地图:点击带黑十字的绿色按钮放大地图;点击带横线的绿色按钮缩小地图;或者点击绿色箭头查看邻近地区的地图。


METAR-TAF: